createdAt,value
2023-03-12T00:36:52.014Z,0.65
2023-03-12T00:37:52.011Z,0.63
2023-03-12T00:38:52.041Z,0.59
2023-03-12T00:39:51.988Z,0.92
2023-03-12T00:40:51.981Z,0.80
2023-03-12T00:41:51.980Z,0.77
2023-03-12T00:42:51.984Z,0.72
2023-03-12T00:43:51.975Z,0.54
2023-03-12T00:44:51.961Z,0.74
2023-03-12T00:45:52.030Z,0.59
2023-03-12T00:46:51.997Z,0.86
2023-03-12T00:47:51.937Z,0.79
2023-03-12T00:48:51.947Z,0.56
2023-03-12T00:49:51.931Z,0.77
2023-03-12T00:50:51.929Z,0.64
2023-03-12T00:51:51.925Z,0.69
2023-03-12T00:52:51.914Z,0.91
2023-03-12T00:53:51.909Z,0.87
2023-03-12T00:54:51.989Z,0.57
2023-03-12T00:55:51.936Z,0.56
2023-03-12T00:56:51.951Z,0.72
2023-03-12T00:57:51.953Z,0.82
2023-03-12T00:58:51.967Z,0.81
2023-03-12T00:59:51.968Z,0.74
2023-03-12T01:00:52.010Z,0.60
2023-03-12T01:01:51.986Z,0.55
2023-03-12T01:02:52.010Z,0.96
2023-03-12T01:03:52.134Z,0.84
2023-03-12T01:04:52.023Z,0.79
2023-03-12T01:05:52.058Z,0.90
2023-03-12T01:06:52.050Z,0.67
2023-03-12T01:07:52.055Z,0.66
2023-03-12T01:08:52.080Z,0.72
2023-03-12T01:09:52.111Z,0.80
2023-03-12T01:10:52.081Z,0.59
2023-03-12T01:11:52.112Z,0.74
2023-03-12T01:12:52.146Z,1.04
2023-03-12T01:13:52.125Z,0.80
2023-03-12T01:14:52.229Z,0.72
2023-03-12T01:15:52.156Z,0.77
2023-03-12T01:16:52.729Z,0.69
2023-03-12T01:17:52.182Z,0.60
2023-03-12T01:18:52.193Z,0.81
2023-03-12T01:19:52.988Z,0.63
2023-03-12T01:20:52.213Z,0.67
2023-03-12T01:21:52.222Z,0.67
2023-03-12T01:22:52.224Z,0.73
2023-03-12T01:23:52.239Z,0.80
2023-03-12T01:24:52.258Z,0.80
2023-03-12T01:25:52.991Z,0.76
2023-03-12T01:26:52.272Z,0.54
2023-03-12T01:27:53.066Z,0.64
2023-03-12T01:28:52.292Z,0.70
2023-03-12T01:29:52.298Z,0.86
2023-03-12T01:30:52.495Z,0.79
2023-03-12T01:31:52.422Z,0.71
2023-03-12T01:32:52.440Z,1.11
2023-03-12T01:33:52.372Z,0.82
2023-03-12T01:34:52.382Z,0.64
2023-03-12T01:35:52.498Z,0.71
2023-03-12T01:36:52.398Z,0.50
2023-03-12T01:37:52.412Z,0.73
2023-03-12T01:38:52.432Z,0.78
2023-03-12T01:39:52.450Z,0.73
2023-03-12T01:40:52.462Z,0.76
2023-03-12T01:41:52.482Z,0.68
2023-03-12T01:42:53.491Z,0.87
2023-03-12T01:43:53.001Z,0.73
2023-03-12T01:44:52.540Z,0.98
2023-03-12T01:45:52.556Z,0.77
2023-03-12T01:46:52.555Z,0.68
2023-03-12T01:47:52.585Z,0.82
2023-03-12T01:48:52.605Z,0.77
2023-03-12T01:49:52.613Z,0.83
2023-03-12T02:13:52.980Z,0.99
2023-03-12T02:14:52.982Z,0.63
2023-03-12T02:15:52.990Z,0.67
2023-03-12T02:16:53.168Z,0.72
2023-03-12T02:17:53.013Z,0.95
2023-03-12T02:18:53.055Z,0.67
2023-03-12T02:20:53.056Z,0.51
2023-03-12T02:21:53.512Z,0.83
2023-03-12T02:22:53.155Z,0.80
2023-03-12T02:23:53.090Z,0.53
2023-03-12T02:24:53.111Z,0.60
2023-03-12T02:25:53.128Z,0.65
2023-03-12T02:26:53.141Z,0.65
2023-03-12T02:27:53.218Z,0.80
2023-03-12T02:28:53.168Z,0.97
2023-03-12T02:29:53.159Z,0.82
2023-03-12T02:30:53.172Z,1.17
2023-03-12T02:31:53.274Z,0.64
2023-03-12T02:32:53.308Z,0.51
2023-03-12T02:33:53.198Z,0.81
2023-03-12T02:34:53.229Z,0.79
2023-03-12T02:35:53.265Z,0.72
2023-03-12T02:36:53.256Z,0.80
2023-03-12T02:37:53.273Z,0.88
2023-03-12T02:38:54.020Z,0.83
2023-03-12T02:39:53.515Z,0.86
2023-03-12T02:40:53.332Z,0.61
2023-03-12T02:41:53.355Z,0.81
2023-03-12T02:42:53.364Z,0.88
2023-03-12T02:43:53.377Z,0.61
2023-03-12T02:44:53.484Z,0.62
2023-03-12T02:45:53.448Z,0.81
2023-03-12T02:46:53.442Z,0.59
2023-03-12T02:47:53.458Z,0.68
2023-03-12T02:48:53.478Z,0.77
2023-03-12T02:49:53.486Z,0.81
2023-03-12T02:50:53.508Z,0.84
2023-03-12T02:51:53.526Z,0.90
2023-03-12T02:52:53.551Z,0.59
2023-03-12T02:53:53.567Z,0.85
2023-03-12T02:54:53.588Z,0.62
2023-03-12T02:55:53.601Z,0.78
2023-03-12T02:56:53.616Z,0.62
2023-03-12T02:57:53.632Z,0.49
2023-03-12T02:58:53.681Z,0.83
2023-03-12T02:59:53.668Z,0.81
2023-03-12T03:00:53.672Z,0.56
2023-03-12T03:01:53.700Z,0.65
2023-03-12T03:02:53.713Z,0.57
2023-03-12T03:03:53.756Z,0.72
2023-03-12T03:04:53.736Z,0.79
2023-03-12T03:05:53.748Z,0.64
2023-03-12T03:06:53.765Z,0.64
2023-03-12T03:07:53.780Z,0.64
2023-03-12T03:08:53.777Z,0.54
2023-03-12T03:09:53.809Z,0.76
2023-03-12T03:10:53.796Z,0.82
2023-03-12T03:11:53.891Z,0.83
2023-03-12T03:12:53.839Z,0.73
2023-03-12T03:13:53.845Z,0.83
2023-03-12T03:14:53.847Z,0.70
2023-03-12T03:15:53.983Z,0.79
2023-03-12T03:16:53.887Z,0.89
2023-03-12T03:17:53.918Z,0.76
2023-03-12T03:18:53.907Z,0.79
2023-03-12T03:19:53.917Z,0.88
2023-03-12T03:21:53.955Z,0.70
2023-03-12T03:22:53.968Z,1.16
2023-03-12T03:23:53.980Z,0.47
2023-03-12T03:24:54.008Z,0.72
2023-03-12T03:25:54.002Z,0.76
2023-03-12T03:26:54.020Z,0.80
2023-03-12T03:28:54.055Z,0.63
2023-03-12T03:29:54.058Z,0.60
2023-03-12T03:30:54.094Z,0.95
2023-03-12T03:31:54.086Z,0.70
2023-03-12T03:32:54.113Z,0.61
2023-03-12T03:33:54.131Z,0.80
2023-03-12T03:34:54.131Z,0.76
2023-03-12T03:35:54.136Z,0.67
2023-03-12T03:36:54.134Z,0.85
2023-03-12T03:37:54.165Z,0.70
2023-03-12T03:38:54.187Z,0.65
2023-03-12T03:39:54.165Z,0.43
2023-03-12T03:40:54.176Z,0.64
2023-03-12T03:41:54.181Z,0.80
2023-03-12T03:42:54.200Z,0.89
2023-03-12T03:43:54.270Z,0.81
2023-03-12T03:44:54.220Z,0.73
2023-03-12T03:45:54.252Z,0.96
2023-03-12T03:46:54.260Z,0.82
2023-03-12T03:47:55.041Z,0.44
2023-03-12T03:48:54.270Z,0.74
2023-03-12T03:49:54.293Z,0.61
2023-03-12T03:50:54.291Z,0.83
2023-03-12T03:52:54.335Z,0.62
2023-03-12T03:53:54.355Z,0.83
2023-03-12T03:54:54.366Z,0.70
2023-03-12T04:56:54.980Z,0.56
2023-03-12T04:57:54.977Z,0.55
2023-03-12T04:58:55.002Z,0.82
2023-03-12T04:59:55.039Z,0.80
2023-03-12T05:00:55.030Z,0.73
2023-03-12T05:01:55.114Z,0.58
2023-03-12T05:02:55.082Z,0.73
2023-03-12T05:03:55.104Z,0.37
2023-03-12T05:04:55.076Z,0.84
2023-03-12T05:05:55.097Z,0.71
2023-03-12T05:06:55.116Z,0.63
2023-03-12T05:07:55.134Z,0.76
2023-03-12T05:08:55.153Z,0.54
2023-03-12T05:09:55.159Z,0.42
2023-03-12T05:10:55.189Z,0.44
2023-03-12T05:11:55.192Z,0.47
2023-03-12T05:12:55.224Z,0.86
2023-03-12T05:13:55.244Z,0.85
2023-03-12T05:14:55.249Z,0.66
2023-03-12T05:15:55.282Z,0.72
2023-03-12T05:16:55.284Z,0.75
2023-03-12T05:17:56.077Z,0.67
2023-03-12T05:18:55.310Z,0.61
2023-03-12T05:19:55.321Z,0.81
2023-03-12T05:20:55.409Z,0.55
2023-03-12T05:21:55.342Z,0.58
2023-03-12T05:22:55.580Z,0.52
2023-03-12T05:23:55.367Z,0.46
2023-03-12T05:24:55.369Z,0.82
2023-03-12T05:25:55.381Z,0.55
2023-03-12T05:26:55.375Z,0.85
2023-03-12T05:27:55.391Z,0.53
2023-03-12T05:28:55.396Z,0.51
2023-03-12T05:29:55.406Z,0.76
2023-03-12T05:30:55.399Z,0.75
2023-03-12T05:31:55.507Z,0.65
2023-03-12T05:32:55.439Z,0.84
2023-03-12T05:33:55.435Z,0.73
2023-03-12T05:34:55.447Z,0.78
2023-03-12T05:35:56.113Z,0.68
2023-03-12T05:36:55.587Z,0.61
2023-03-12T05:37:55.449Z,0.52
2023-03-12T05:38:55.453Z,0.63
2023-03-12T05:39:55.466Z,0.88
2023-03-12T05:40:55.475Z,0.68
2023-03-12T05:41:55.495Z,0.76
2023-03-12T05:42:55.506Z,1.25
2023-03-12T05:43:55.529Z,0.54
2023-03-12T05:44:55.520Z,0.71
2023-03-12T05:45:55.610Z,0.76
2023-03-12T05:46:58.432Z,0.75
2023-03-12T05:47:55.532Z,0.62
2023-03-12T05:48:55.529Z,0.72
2023-03-12T05:49:55.533Z,0.81
2023-03-12T05:50:55.525Z,0.70
2023-03-12T05:51:55.513Z,0.53
2023-03-12T05:52:55.504Z,0.50
2023-03-12T05:53:55.505Z,0.69
2023-03-12T05:54:55.485Z,0.82
2023-03-12T05:55:55.602Z,0.67
2023-03-12T05:56:55.473Z,0.77
2023-03-12T08:32:55.355Z,1.15
2023-03-12T09:06:56.432Z,0.90
2023-03-12T09:15:05.079Z,1.39
2023-03-12T09:20:56.781Z,1.07
2023-03-12T10:43:00.645Z,1.00
2023-03-12T10:44:00.689Z,0.98
2023-03-12T10:45:01.113Z,1.25
2023-03-12T10:46:00.837Z,1.00
2023-03-12T10:47:00.861Z,1.08
2023-03-12T10:48:00.924Z,1.25
2023-03-12T10:49:01.000Z,1.08
2023-03-12T10:50:01.038Z,1.69
2023-03-12T10:51:01.172Z,1.28
2023-03-12T10:52:01.184Z,1.42
2023-03-12T10:53:01.209Z,1.23
2023-03-12T10:54:01.259Z,1.18
2023-03-12T10:56:01.365Z,0.96
2023-03-12T11:10:02.027Z,1.19
2023-03-12T11:38:02.800Z,1.19
2023-03-12T12:07:04.124Z,0.90
2023-03-12T12:08:04.152Z,1.19
2023-03-12T12:09:04.185Z,1.30
2023-03-12T12:10:04.231Z,1.22
2023-03-12T12:13:04.336Z,1.20
2023-03-12T12:14:04.367Z,1.21
2023-03-12T12:15:04.403Z,1.13
2023-03-12T12:16:04.464Z,0.96
2023-03-12T12:17:04.473Z,1.06
2023-03-12T12:18:04.500Z,1.17
2023-03-12T12:19:04.736Z,1.10
2023-03-12T12:20:04.572Z,1.23
2023-03-12T12:21:04.614Z,1.00
2023-03-12T12:22:04.654Z,1.13
2023-03-12T12:23:04.691Z,1.15
2023-03-12T12:24:04.739Z,1.14
2023-03-12T12:25:04.781Z,1.29
2023-03-12T12:26:04.821Z,1.32
2023-03-12T12:27:04.870Z,1.23
2023-03-12T12:29:04.939Z,1.10
2023-03-12T12:30:04.985Z,1.35
2023-03-12T12:31:05.031Z,1.00
2023-03-12T12:32:05.209Z,1.12
2023-03-12T12:33:05.188Z,1.71
2023-03-12T12:34:05.250Z,1.05
2023-03-12T12:35:05.229Z,1.04
2023-03-12T12:36:05.270Z,1.16
2023-03-12T12:37:05.310Z,1.24
2023-03-12T12:38:05.356Z,1.31
2023-03-12T12:39:05.372Z,1.38
2023-03-12T12:40:05.408Z,1.17
2023-03-12T14:06:10.784Z,1.03
2023-03-12T14:10:11.284Z,1.39
2023-03-12T14:16:10.809Z,1.32
2023-03-12T14:17:10.701Z,1.12
2023-03-12T14:18:10.755Z,1.39
2023-03-12T14:19:10.812Z,1.13
2023-03-12T14:20:10.883Z,0.96
2023-03-12T14:21:10.952Z,1.37
2023-03-12T14:22:10.985Z,1.12
2023-03-12T14:23:11.044Z,1.31
2023-03-12T14:24:11.096Z,1.10
2023-03-12T14:25:11.148Z,1.02
2023-03-12T14:26:11.228Z,1.24
2023-03-12T14:27:11.263Z,1.31
2023-03-12T14:28:11.350Z,1.16
2023-03-12T14:29:11.383Z,1.37
2023-03-12T14:30:11.449Z,1.17
2023-03-12T14:31:11.548Z,1.31
2023-03-12T14:32:11.559Z,1.34
2023-03-12T14:33:11.617Z,1.30
2023-03-12T14:34:11.692Z,1.09
2023-03-12T14:35:11.726Z,1.43
2023-03-12T14:36:11.791Z,1.60
2023-03-12T14:37:11.853Z,1.29
2023-03-12T14:38:11.913Z,1.37
2023-03-12T14:39:11.961Z,1.39
2023-03-12T14:40:12.002Z,1.17
2023-03-12T14:41:12.056Z,1.13
2023-03-12T14:42:12.116Z,1.37
2023-03-12T14:43:12.166Z,1.64
2023-03-12T14:44:12.215Z,1.25
2023-03-12T14:45:12.267Z,1.41
2023-03-12T14:46:12.335Z,1.12
2023-03-12T14:47:12.390Z,1.46
2023-03-12T14:48:12.441Z,1.32
2023-03-12T14:49:12.560Z,1.25
2023-03-12T14:50:12.602Z,1.22
2023-03-12T14:51:12.644Z,1.42
2023-03-12T14:52:12.680Z,1.41
2023-03-12T14:53:12.729Z,1.19
2023-03-12T14:54:12.795Z,1.12
2023-03-12T14:55:12.855Z,1.15
2023-03-12T14:56:12.904Z,1.24
2023-03-12T14:57:12.967Z,1.50
2023-03-12T14:58:13.014Z,1.17
2023-03-12T14:59:13.078Z,1.42
2023-03-12T15:00:13.143Z,1.19
2023-03-12T15:01:13.204Z,1.27
2023-03-12T15:02:13.365Z,1.68
2023-03-12T15:03:13.328Z,1.09
2023-03-12T15:04:13.378Z,1.31
2023-03-12T15:05:13.495Z,1.09
2023-03-12T15:06:13.512Z,1.31
2023-03-12T15:07:13.580Z,1.35
2023-03-12T15:08:13.715Z,1.28
2023-03-12T15:09:13.777Z,1.51
2023-03-12T15:10:13.761Z,1.28
2023-03-12T15:11:13.893Z,1.20
2023-03-12T15:12:13.893Z,1.26
2023-03-12T15:13:13.947Z,1.04
2023-03-12T15:14:14.053Z,1.63
2023-03-12T15:15:14.060Z,1.37
2023-03-12T22:50:19.911Z,1.30
2023-03-12T22:51:19.925Z,1.47
2023-03-12T22:52:19.927Z,1.25
2023-03-12T22:53:19.943Z,1.22
2023-03-12T22:54:19.956Z,1.43
2023-03-12T22:55:19.975Z,1.72
2023-03-12T22:56:19.975Z,1.34
2023-03-12T22:57:20.011Z,1.22
2023-03-12T22:58:20.097Z,1.47
2023-03-12T22:59:20.025Z,1.25
2023-03-12T23:01:20.152Z,1.09
2023-03-12T23:02:20.060Z,1.03
2023-03-12T23:03:20.086Z,1.07
2023-03-12T23:04:20.122Z,1.50
2023-03-12T23:05:20.092Z,1.41
2023-03-12T23:48:20.631Z,1.27
2023-03-12T23:49:20.635Z,1.43
2023-03-12T23:50:20.707Z,1.42
2023-03-12T23:51:20.657Z,1.51
2023-03-12T23:52:20.676Z,1.39
2023-03-12T23:53:20.686Z,1.20
2023-03-12T23:54:20.698Z,1.20
2023-03-12T23:56:20.706Z,1.39
2023-03-12T23:57:20.724Z,1.05
2023-03-12T23:58:20.732Z,1.16
2023-03-12T23:59:20.754Z,1.45
